• Join FlightAware (Why Join?)
  • Login
  • US Flag 
05:59AM EDT


 

Airport Tracker/Info


-or-


 

Live Flight TrackerFlight Track Log ✈ FSR411 ✈ 09-May-2013 ✈ KDET - KCMI

Flight Track Log - Related Links

Times and Time Zones

All times are in EDT time to prevent confusion due to time zone crossing. See the FSR411 flight status page for this flight to view local times or setup timezone preferences in your user account.

Time Position Orientation Groundspeed Altitude Reporting Facility
EDT Latitude Longitude Course Direction KTS MPH feet Rate Location/Type
03:08PM 42.3933 -82.9956 220° Southwest 170 196 1,500  Level Cleveland Center
03:09PM 42.3606 -82.9547 137° Southeast 221 254 2,900 1,680 Climbing Cleveland Center
03:10PM 42.2964 -82.9411 171° South 261 300 4,400 1,920 Climbing Cleveland Center
03:10PM 42.2736 -82.9292 159° South 255 293 5,300 3,180 Climbing Cleveland Center
03:11PM 42.2144 -82.8681 143° Southeast 292 336 8,700 2,760 Climbing Cleveland Center
03:12PM 42.1372 -82.8736 183° South 279 321 10,900 1,800 Climbing Cleveland Center
03:13PM 42.0586 -82.9408 212° Southwest 299 344 12,400 2,280 Climbing Cleveland Center
03:14PM 41.9860 -83.4617 220° Southwest  Level FlightAware Approximate
03:14PM 41.9919 -83.0444 229° Southwest 320 368 15,500  Level Cleveland Center
03:15PM 41.9275 -83.1342 226° Southwest 345 397 18,500 3,000 Climbing Cleveland Center
03:16PM 41.8542 -83.2428 228° Southwest 383 441 21,600 2,700 Climbing Cleveland Center
03:17PM 41.7783 -83.3567 228° Southwest 400 460 24,000 2,220 Climbing Cleveland Center
03:18PM 41.6983 -83.4756 228° Southwest 418 481 26,100 2,100 Climbing Cleveland Center
03:19PM 41.6444 -83.6175 243° Southwest 428 493 28,200 1,680 Climbing Cleveland Center
03:20PM 41.6011 -83.7628 248° West 428 493 29,500 900 Climbing Cleveland Center
03:21PM 41.5553 -83.9075 247° West 428 493 30,000 240 Climbing Cleveland Center
03:22PM 41.5092 -84.0522 247° West 428 493 30,000  Level Cleveland Center
03:23PM 41.4631 -84.1967 247° West 428 493 30,000  Level Cleveland Center
03:24PM 41.4164 -84.3519 248° West 428 493 30,000  Level Cleveland Center
03:25PM 41.3603 -84.5253 247° West 420 483 30,000  Level Chicago Center
03:27PM 41.3469 -84.6728 263° West 404 465 30,000  Level Chicago Center
03:28PM 41.3342 -84.8236 264° West 406 467 30,000  Level Chicago Center
03:29PM 41.3547 -84.9700 281° West 402 463 30,000  Level Chicago Center
03:30PM 41.3733 -85.1183 280° West 404 465 30,000  Level Chicago Center
03:31PM 41.3542 -85.2628 260° West 399 459 30,000  Level Chicago Center
03:32PM 41.2981 -85.3964 241° Southwest 409 471 30,000  Level Chicago Center
03:33PM 41.2319 -85.5569 241° Southwest 409 471 30,000  Level Chicago Center
03:34PM 41.1758 -85.6875 240° Southwest 405 466 30,000  Level Chicago Center
03:35PM 41.1242 -85.8211 243° Southwest 406 467 30,000  Level Chicago Center
03:36PM 41.0831 -85.9600 249° West 404 465 30,000 -540 Level Chicago Center
03:37PM 41.0411 -86.0956 248° West 401 461 29,000 -1,500 Descending Chicago Center
03:38PM 40.9969 -86.2225 245° Southwest 387 445 27,000 -2,040 Descending Chicago Center
03:39PM 40.9289 -86.3650 238° Southwest 384 442 24,900 -1,500 Descending Chicago Center
03:40PM 40.8731 -86.4867 239° Southwest 386 444 24,000 -480 Descending Chicago Center
03:41PM 40.8169 -86.6111 239° Southwest 392 451 24,000 -780 Level Chicago Center
03:42PM 40.7589 -86.7375 239° Southwest 401 461 22,500 -2,040 Descending Chicago Center
03:43PM 40.6986 -86.8708 239° Southwest 392 451 19,900 -2,340 Descending Chicago Center
03:44PM 40.6439 -86.9914 239° Southwest 387 445 17,700 -2,340 Descending Chicago Center
03:45PM 40.5858 -87.1167 239° Southwest 371 427 15,100 -2,340 Descending Chicago Center
03:46PM 40.5347 -87.2275 239° Southwest 358 412 12,900 -1,620 Descending Chicago Center
03:47PM 40.4892 -87.3261 239° Southwest 326 375 11,800 -960 Descending Chicago Center
03:48PM 40.4406 -87.4294 238° Southwest 309 356 11,000 -540 Descending Chicago Center
03:49PM 40.3994 -87.5186 239° Southwest 313 360 10,800 -1,320 Descending Chicago Center
03:50PM 40.3547 -87.6250 241° Southwest 283 326 8,300 -2,340 Descending Chicago Center
03:51PM 40.3250 -87.7111 246° West 262 302 6,000 -2,280 Descending Chicago Center
03:52PM 40.2961 -87.7961 246° West 258 297 3,600 -1,500 Descending Chicago Center
03:53PM 40.2678 -87.8764 245° Southwest 253 291 3,000 -360 Descending Chicago Center
03:54PM 40.2408 -87.9525 245° Southwest 245 282 2,900 -60 Descending Chicago Center
03:55PM 40.2194 -88.0164 246° West 225 259 2,900  Level Chicago Center
03:57PM 40.1552 -88.1096 246° West  Level Estimated
04:04PM 40.0333 -88.2667 246° West  Level FlightAware Approximate
04:05PM 40.0388 -88.2778 246° West  Level Estimated
04:06PM 40.0388 -88.2778 246° West  Level Estimated
04:07PM 40.0388 -88.2778 246° West  Level Estimated
04:08PM 40.0388 -88.2778 246° West  Level Estimated
04:09PM 40.0388 -88.2778 246° West  Level Estimated
04:10PM 40.0388 -88.2778 246° West  Level Estimated